Time;durP1;ratioP1;P1;durP2;ratioP2;P2;SDS_P1;SDS_P2;PMS_P1;PMS_P2;Temp;Humidity;BMP_temperature;BMP_pressure;BME280_temperature;BME280_humidity;BME280_pressure;Samples;Min_cycle;Max_cycle;Signal;HPM_P1;HPM_P2
2023/08/14 00:01:32;;;;;;;3.22;1.73;;;16.30;97.80;;;;;;5044865;28;20135;-75
2023/08/14 00:03:57;;;;;;;4.63;1.38;;;16.20;97.90;;;;;;5026499;28;20044;-77
2023/08/14 00:06:23;;;;;;;5.25;1.67;;;16.20;97.90;;;;;;5046708;28;20491;-75
2023/08/14 00:08:51;;;;;;;6.13;1.73;;;16.20;98.00;;;;;;5057230;28;20784;-77
2023/08/14 00:11:17;;;;;;;8.95;2.00;;;16.20;98.10;;;;;;5058098;28;20040;-77
2023/08/14 00:13:51;;;;;;;6.32;2.40;;;16.20;98.20;;;;;;5056767;28;20529;-75
2023/08/14 00:16:17;;;;;;;4.20;2.10;;;16.20;98.30;;;;;;5058095;28;20055;-78
2023/08/14 00:18:43;;;;;;;5.20;2.22;;;16.20;98.40;;;;;;5060815;28;20040;-76
2023/08/14 00:21:08;;;;;;;6.93;2.65;;;16.20;98.50;;;;;;5060602;28;20081;-75
2023/08/14 00:23:34;;;;;;;6.25;2.47;;;16.20;98.60;;;;;;5055633;28;20072;-77
2023/08/14 00:26:00;;;;;;;6.57;3.13;;;16.20;99.00;;;;;;5047524;28;20139;-75
2023/08/14 00:28:26;;;;;;;5.00;2.80;;;16.20;98.80;;;;;;5044954;28;20865;-75
2023/08/14 00:30:52;;;;;;;4.90;3.00;;;16.20;99.00;;;;;;5029976;28;20047;-74
2023/08/14 00:33:17;;;;;;;7.65;3.25;;;16.10;99.10;;;;;;5044776;28;20040;-76
2023/08/14 00:35:43;;;;;;;5.82;3.25;;;16.10;99.20;;;;;;5036217;28;20176;-75
2023/08/14 00:38:09;;;;;;;5.95;3.50;;;16.10;99.30;;;;;;5059900;28;20040;-74
2023/08/14 00:40:35;;;;;;;5.72;3.10;;;16.10;99.50;;;;;;5046210;28;20051;-73
2023/08/14 00:43:00;;;;;;;6.80;3.10;;;16.10;99.70;;;;;;5057081;28;20466;-75
2023/08/14 00:45:27;;;;;;;6.03;3.33;;;16.10;99.90;;;;;;5057718;28;20418;-78
2023/08/14 00:47:54;;;;;;;8.35;3.85;;;16.10;99.90;;;;;;5046041;28;20048;-75
2023/08/14 00:50:20;;;;;;;8.23;3.50;;;16.00;99.90;;;;;;5058358;28;20042;-74
2023/08/14 00:52:48;;;;;;;8.38;4.05;;;16.00;99.90;;;;;;5033089;28;20066;-72
2023/08/14 00:55:18;;;;;;;6.55;4.35;;;16.10;99.90;;;;;;5028324;28;20046;-77
2023/08/14 00:57:45;;;;;;;5.63;3.90;;;15.30;99.90;;;;;;5044322;28;20066;-74
2023/08/14 01:00:13;;;;;;;10.20;4.20;;;16.00;99.90;;;;;;5046656;28;20116;-77
2023/08/14 01:02:41;;;;;;;7.10;4.30;;;16.00;99.90;;;;;;5038277;28;20044;-78
2023/08/14 01:05:07;;;;;;;6.93;4.10;;;16.00;99.90;;;;;;5059740;28;20052;-74
2023/08/14 01:07:33;;;;;;;8.75;5.18;;;16.00;99.90;;;;;;5046149;28;20044;-76
2023/08/14 01:10:01;;;;;;;8.73;4.45;;;16.00;99.90;;;;;;5076444;28;20050;-75
2023/08/14 01:12:46;;;;;;;7.82;4.57;;;15.90;99.90;;;;;;5060403;28;20075;-74
2023/08/14 01:15:17;;;;;;;8.32;4.43;;;15.90;99.90;;;;;;5062355;28;20048;-75
2023/08/14 01:17:49;;;;;;;8.10;5.20;;;15.90;99.90;;;;;;5058003;28;20080;-78
2023/08/14 01:20:18;;;;;;;7.18;4.68;;;15.90;99.90;;;;;;5057403;28;20104;-74
2023/08/14 01:22:43;;;;;;;8.38;4.80;;;15.90;99.90;;;;;;5055483;28;20541;-77
2023/08/14 01:25:39;;;;;;;11.43;5.22;;;15.90;99.90;;;;;;5056279;28;20490;-75
2023/08/14 01:28:08;;;;;;;9.25;4.72;;;15.90;99.90;;;;;;5027896;28;20044;-77
2023/08/14 01:30:34;;;;;;;9.23;5.05;;;15.80;99.90;;;;;;5057415;28;20378;-75
2023/08/14 01:33:00;;;;;;;8.10;4.97;;;15.90;99.90;;;;;;5058093;28;20040;-76
2023/08/14 01:35:36;;;;;;;8.23;4.88;;;15.90;99.90;;;;;;5053570;28;20137;-77
2023/08/14 01:38:16;;;;;;;9.52;4.78;;;15.90;99.90;;;;;;5063208;28;20055;-74
2023/08/14 01:41:05;;;;;;;10.40;4.65;;;15.90;99.90;;;;;;5057318;28;20047;-75
2023/08/14 01:43:37;;;;;;;6.95;4.20;;;15.90;99.90;;;;;;5047178;28;20052;-77
2023/08/14 01:46:06;;;;;;;9.85;4.88;;;15.90;99.90;;;;;;5059807;28;20128;-74
2023/08/14 01:48:32;;;;;;;7.03;4.80;;;15.90;99.90;;;;;;5058290;28;20131;-73
2023/08/14 01:51:00;;;;;;;9.40;5.32;;;15.90;99.90;;;;;;5046482;28;20082;-77
2023/08/14 01:53:26;;;;;;;8.77;4.68;;;15.90;99.90;;;;;;5043826;28;20055;-74
2023/08/14 01:55:52;;;;;;;7.28;4.10;;;16.00;99.90;;;;;;5074609;28;20043;-74
2023/08/14 01:58:18;;;;;;;9.32;5.10;;;16.00;99.90;;;;;;5043591;28;20070;-75
2023/08/14 02:00:44;;;;;;;6.95;4.30;;;16.00;99.90;;;;;;5044692;28;20603;-75
2023/08/14 02:03:10;;;;;;;8.75;4.72;;;16.00;99.90;;;;;;5045102;28;20039;-75
2023/08/14 02:05:35;;;;;;;12.15;4.55;;;16.00;99.90;;;;;;5055023;28;20768;-75
2023/08/14 02:08:01;;;;;;;9.13;4.80;;;16.00;99.90;;;;;;5050930;28;21750;-77
2023/08/14 02:10:27;;;;;;;10.07;4.75;;;16.00;99.90;;;;;;5038815;28;20056;-77
2023/08/14 02:12:53;;;;;;;7.78;4.75;;;16.00;99.90;;;;;;5040712;28;20044;-75
2023/08/14 02:15:20;;;;;;;9.00;5.15;;;16.00;99.90;;;;;;5029471;28;20040;-75
2023/08/14 02:17:46;;;;;;;8.38;4.82;;;16.00;99.90;;;;;;5052130;28;20434;-78
2023/08/14 02:20:12;;;;;;;8.88;4.53;;;16.00;99.90;;;;;;5057892;28;20051;-78
2023/08/14 02:22:38;;;;;;;10.15;4.43;;;16.00;99.90;;;;;;5041386;28;20043;-78
2023/08/14 02:25:05;;;;;;;11.05;4.75;;;16.00;99.90;;;;;;5057885;28;20043;-76
2023/08/14 02:27:31;;;;;;;10.60;4.38;;;16.80;99.90;;;;;;5043799;28;20044;-77
2023/08/14 02:29:57;;;;;;;7.32;4.10;;;15.90;99.90;;;;;;5049093;28;20105;-77
2023/08/14 02:32:23;;;;;;;9.32;4.40;;;15.90;99.90;;;;;;5059038;28;20073;-75
2023/08/14 02:34:55;;;;;;;7.07;4.38;;;15.90;99.90;;;;;;5058954;28;20514;-77
2023/08/14 02:37:22;;;;;;;11.85;5.00;;;15.90;99.90;;;;;;5054579;28;20128;-76
2023/08/14 02:39:48;;;;;;;9.73;4.20;;;15.90;99.90;;;;;;5044272;28;20168;-78
2023/08/14 02:42:18;;;;;;;10.20;4.35;;;15.80;99.90;;;;;;5064217;28;20039;-75
2023/08/14 02:44:44;;;;;;;9.82;4.13;;;16.40;99.90;;;;;;5050020;28;20503;-76
2023/08/14 02:47:10;;;;;;;9.82;3.88;;;15.80;99.90;;;;;;5062859;28;20048;-78
2023/08/14 02:49:36;;;;;;;8.07;3.80;;;15.80;99.90;;;;;;5071385;28;20055;-77
2023/08/14 02:52:01;;;;;;;8.60;3.60;;;15.70;99.90;;;;;;5035286;28;20052;-76
2023/08/14 02:54:27;;;;;;;9.60;3.45;;;15.70;99.90;;;;;;5064820;28;20207;-75
2023/08/14 02:56:53;;;;;;;7.93;3.55;;;15.70;99.90;;;;;;5047380;28;20039;-78
2023/08/14 02:59:19;;;;;;;6.88;3.35;;;15.70;99.90;;;;;;5060343;28;20043;-75
2023/08/14 03:01:45;;;;;;;7.20;3.95;;;15.70;99.90;;;;;;5060322;28;20047;-78
2023/08/14 03:04:12;;;;;;;8.32;4.22;;;15.70;99.90;;;;;;5051316;28;20067;-76
2023/08/14 03:06:38;;;;;;;8.15;3.95;;;15.70;99.90;;;;;;5061666;28;20042;-75
2023/08/14 03:09:04;;;;;;;6.03;3.78;;;15.70;99.90;;;;;;5057499;28;20047;-74
2023/08/14 03:11:30;;;;;;;9.23;3.88;;;15.70;99.90;;;;;;5068076;28;20125;-77
2023/08/14 03:13:56;;;;;;;8.32;4.22;;;15.60;99.90;;;;;;5057602;28;20153;-75
2023/08/14 03:16:21;;;;;;;7.35;3.92;;;15.60;99.90;;;;;;5058255;28;20288;-75
2023/08/14 03:18:47;;;;;;;8.38;4.40;;;15.60;99.90;;;;;;5057009;28;20514;-77
2023/08/14 03:21:13;;;;;;;7.47;4.38;;;15.60;99.90;;;;;;5059473;28;21017;-77
2023/08/14 03:23:39;;;;;;;7.07;4.03;;;15.50;99.90;;;;;;5044898;28;20108;-75
2023/08/14 03:26:05;;;;;;;9.02;4.13;;;15.50;99.90;;;;;;5063101;28;20123;-76
2023/08/14 03:28:32;;;;;;;9.27;4.60;;;15.50;99.90;;;;;;5063933;28;20039;-75
2023/08/14 03:30:57;;;;;;;7.72;4.28;;;15.50;99.90;;;;;;5042846;28;20056;-77
2023/08/14 03:33:24;;;;;;;7.65;4.68;;;15.50;99.90;;;;;;5042693;28;20126;-75
2023/08/14 03:35:53;;;;;;;8.23;4.00;;;15.40;99.90;;;;;;5049432;28;20044;-75
2023/08/14 03:38:20;;;;;;;8.25;4.50;;;15.40;99.90;;;;;;5059079;28;21384;-76
2023/08/14 03:40:45;;;;;;;11.05;4.75;;;15.40;99.90;;;;;;5046410;28;20052;-76
2023/08/14 03:43:12;;;;;;;6.22;4.00;;;15.30;99.90;;;;;;5056697;28;20051;-75
2023/08/14 03:45:38;;;;;;;8.93;3.90;;;15.30;99.90;;;;;;5059460;28;20087;-76
2023/08/14 03:48:04;;;;;;;10.32;4.03;;;15.30;99.90;;;;;;5060871;28;20235;-76
2023/08/14 03:50:30;;;;;;;8.25;3.92;;;15.30;99.90;;;;;;5043778;28;20050;-77
2023/08/14 03:52:57;;;;;;;6.32;3.90;;;15.30;99.90;;;;;;5027866;28;20044;-77
2023/08/14 03:55:23;;;;;;;8.55;4.38;;;15.30;99.90;;;;;;5046100;28;20043;-76
2023/08/14 03:57:49;;;;;;;6.45;4.03;;;15.20;99.90;;;;;;5048660;28;20232;-76
2023/08/14 04:00:15;;;;;;;6.57;4.00;;;15.20;99.90;;;;;;5064686;28;20044;-77
2023/08/14 04:02:40;;;;;;;6.20;4.13;;;15.20;99.90;;;;;;5057890;28;20048;-75
2023/08/14 04:05:06;;;;;;;7.60;4.50;;;15.10;99.90;;;;;;5060109;28;20475;-77
2023/08/14 04:07:32;;;;;;;9.45;3.90;;;15.10;99.90;;;;;;5045298;28;20059;-77
2023/08/14 04:09:59;;;;;;;9.68;4.32;;;15.10;99.90;;;;;;5057230;28;20044;-78
2023/08/14 04:12:25;;;;;;;8.02;4.18;;;15.10;99.90;;;;;;5047171;28;20042;-78
2023/08/14 04:14:51;;;;;;;6.88;4.32;;;15.00;99.90;;;;;;5059998;28;20040;-76
2023/08/14 04:17:17;;;;;;;7.40;4.07;;;15.00;99.90;;;;;;5060021;28;20067;-77
2023/08/14 04:19:43;;;;;;;7.18;4.03;;;15.00;99.90;;;;;;5059848;28;20070;-77
2023/08/14 04:22:08;;;;;;;6.90;3.95;;;15.00;99.90;;;;;;5044095;28;20117;-75
2023/08/14 04:24:34;;;;;;;8.88;4.32;;;15.00;99.90;;;;;;5042769;28;20048;-75
2023/08/14 04:27:00;;;;;;;8.50;3.90;;;15.00;99.90;;;;;;5059929;28;20051;-75
2023/08/14 04:29:26;;;;;;;9.20;4.32;;;15.00;99.90;;;;;;5045881;28;20047;-76
2023/08/14 04:31:51;;;;;;;10.40;4.32;;;15.00;99.90;;;;;;5026585;28;20040;-74
2023/08/14 04:34:17;;;;;;;8.07;4.80;;;15.00;99.90;;;;;;5034540;28;20174;-77
2023/08/14 04:36:43;;;;;;;12.90;4.85;;;15.00;99.90;;;;;;5046213;28;20044;-77
2023/08/14 04:39:09;;;;;;;8.48;4.40;;;15.00;99.90;;;;;;5023080;28;20641;-78
2023/08/14 04:41:35;;;;;;;12.00;4.82;;;15.00;99.90;;;;;;5055696;28;20048;-76
2023/08/14 04:44:02;;;;;;;8.60;5.13;;;15.00;99.90;;;;;;5039485;28;20403;-74
2023/08/14 04:46:38;;;;;;;8.38;4.32;;;15.00;99.90;;;;;;5028871;28;20498;-76
2023/08/14 04:49:04;;;;;;;8.05;4.70;;;15.00;99.90;;;;;;5056825;28;20395;-75
2023/08/14 04:51:31;;;;;;;9.77;5.30;;;15.00;99.90;;;;;;5044796;28;20051;-75
2023/08/14 04:53:58;;;;;;;6.60;4.88;;;15.20;99.90;;;;;;5027763;28;20062;-75
2023/08/14 04:56:25;;;;;;;7.32;4.88;;;15.00;99.90;;;;;;5046134;28;20048;-77
2023/08/14 04:58:52;;;;;;;8.05;4.53;;;15.00;99.90;;;;;;5043490;28;20047;-76
2023/08/14 05:01:18;;;;;;;8.40;4.72;;;15.00;99.90;;;;;;5040525;28;20130;-77
2023/08/14 05:03:44;;;;;;;9.70;4.70;;;14.90;99.90;;;;;;5056403;28;20035;-75
2023/08/14 05:06:10;;;;;;;8.45;4.68;;;15.10;99.90;;;;;;5043877;28;20058;-74
2023/08/14 05:08:39;;;;;;;7.88;5.13;;;15.10;99.90;;;;;;5029620;28;21020;-76
2023/08/14 05:11:05;;;;;;;7.15;4.90;;;15.20;99.90;;;;;;5038289;28;20051;-77
2023/08/14 05:13:31;;;;;;;8.95;4.97;;;15.20;99.90;;;;;;5056648;28;20116;-75
2023/08/14 05:15:57;;;;;;;8.07;5.05;;;15.20;99.90;;;;;;5055285;28;20071;-75
2023/08/14 05:18:23;;;;;;;9.02;5.22;;;15.30;99.90;;;;;;5042518;28;20487;-74
2023/08/14 05:20:50;;;;;;;8.60;4.95;;;15.30;99.90;;;;;;5036860;28;20051;-75
2023/08/14 05:23:16;;;;;;;8.90;5.55;;;15.40;99.90;;;;;;5057087;28;20090;-74
2023/08/14 05:25:43;;;;;;;9.07;4.93;;;15.40;99.90;;;;;;5027186;28;20052;-77
2023/08/14 05:28:09;;;;;;;8.15;4.55;;;15.50;99.90;;;;;;5048664;28;20047;-75
2023/08/14 05:30:35;;;;;;;9.73;5.13;;;15.50;99.90;;;;;;5054216;28;20099;-76
2023/08/14 05:33:01;;;;;;;10.35;4.90;;;15.60;99.90;;;;;;5037554;28;20450;-75
2023/08/14 05:35:28;;;;;;;8.27;5.10;;;15.60;99.90;;;;;;5043272;28;20313;-75
2023/08/14 05:37:56;;;;;;;7.35;4.47;;;15.70;99.90;;;;;;5053883;28;20162;-77
2023/08/14 05:40:23;;;;;;;7.80;4.63;;;15.70;99.90;;;;;;5055653;28;20032;-74
2023/08/14 05:43:06;;;;;;;9.30;4.65;;;15.80;99.90;;;;;;5042598;28;20048;-74
2023/08/14 05:45:42;;;;;;;9.30;4.07;;;15.90;99.90;;;;;;5055742;28;20047;-75
2023/08/14 05:48:08;;;;;;;6.68;4.10;;;15.90;99.90;;;;;;5053742;28;20048;-75
2023/08/14 05:50:35;;;;;;;8.68;4.50;;;16.00;99.90;;;;;;5054765;28;20047;-74
2023/08/14 05:53:04;;;;;;;8.70;4.35;;;16.00;99.90;;;;;;5038436;28;20143;-77
2023/08/14 05:55:40;;;;;;;8.55;4.57;;;16.10;99.90;;;;;;5035442;28;20074;-76
2023/08/14 05:58:07;;;;;;;8.38;4.60;;;16.10;99.90;;;;;;5050666;28;20526;-76
2023/08/14 06:00:34;;;;;;;8.57;4.60;;;16.20;99.90;;;;;;5053342;28;20043;-75
2023/08/14 06:03:01;;;;;;;8.98;4.68;;;16.20;99.90;;;;;;5054506;28;20051;-77
2023/08/14 06:05:26;;;;;;;8.05;4.53;;;16.30;99.90;;;;;;5056707;28;20120;-77
2023/08/14 06:07:53;;;;;;;8.52;5.22;;;16.30;99.90;;;;;;5045394;28;20044;-75
2023/08/14 06:10:20;;;;;;;9.63;4.65;;;16.30;99.90;;;;;;5040920;28;20052;-76
2023/08/14 06:12:48;;;;;;;11.93;5.03;;;16.30;99.90;;;;;;5050684;28;20139;-77
2023/08/14 06:15:14;;;;;;;8.90;4.85;;;16.40;99.90;;;;;;5010654;28;20044;-76
2023/08/14 06:17:41;;;;;;;9.27;4.53;;;16.40;99.90;;;;;;5029002;28;20036;-75
2023/08/14 06:20:07;;;;;;;8.13;4.93;;;16.50;99.90;;;;;;5057850;28;20471;-75
2023/08/14 06:22:38;;;;;;;11.23;4.60;;;16.50;99.90;;;;;;5057074;28;21853;-77
2023/08/14 06:25:05;;;;;;;8.70;4.95;;;16.60;99.90;;;;;;5034799;28;20068;-75
2023/08/14 06:27:31;;;;;;;9.77;5.00;;;16.70;99.90;;;;;;5040730;28;20739;-76
2023/08/14 06:29:57;;;;;;;7.28;4.38;;;16.70;99.90;;;;;;5025614;28;20060;-77
2023/08/14 06:32:22;;;;;;;7.28;4.05;;;16.80;99.90;;;;;;5040937;28;20082;-75
2023/08/14 06:34:48;;;;;;;8.98;3.35;;;16.90;99.90;;;;;;5041650;28;20141;-75
2023/08/14 06:37:14;;;;;;;7.15;2.90;;;17.00;99.90;;;;;;5040928;28;20043;-76
2023/08/14 06:39:39;;;;;;;6.03;2.20;;;17.10;99.90;;;;;;5064338;28;20048;-78
2023/08/14 06:42:06;;;;;;;7.13;2.97;;;17.20;99.90;;;;;;5052853;28;20398;-78
2023/08/14 06:44:31;;;;;;;6.03;2.22;;;17.30;99.90;;;;;;5031684;28;20072;-78
2023/08/14 06:46:59;;;;;;;4.10;2.25;;;17.40;99.90;;;;;;5063286;28;20178;-75
2023/08/14 06:49:26;;;;;;;4.53;2.00;;;17.50;99.90;;;;;;5061210;28;20148;-77
2023/08/14 06:51:53;;;;;;;4.82;2.00;;;17.60;99.90;;;;;;5050821;28;20063;-76
2023/08/14 06:54:19;;;;;;;6.85;1.90;;;17.80;99.90;;;;;;5063567;28;20048;-74
2023/08/14 06:56:45;;;;;;;4.93;1.70;;;18.00;99.90;;;;;;5066130;28;20051;-76
2023/08/14 06:59:14;;;;;;;4.10;1.60;;;18.10;99.90;;;;;;5064510;28;20101;-75
2023/08/14 07:01:40;;;;;;;5.60;1.90;;;18.30;99.90;;;;;;5054782;28;20732;-76
2023/08/14 07:04:06;;;;;;;5.40;1.98;;;18.40;99.90;;;;;;5049428;28;20168;-77
2023/08/14 07:06:32;;;;;;;4.38;1.92;;;18.50;99.90;;;;;;5038452;28;20516;-77
2023/08/14 07:08:58;;;;;;;5.07;1.70;;;18.60;99.90;;;;;;5069585;28;20121;-77
2023/08/14 07:11:24;;;;;;;5.47;1.67;;;18.70;99.90;;;;;;5051758;28;20036;-77
2023/08/14 07:13:49;;;;;;;5.03;1.70;;;18.80;99.90;;;;;;5035918;28;20564;-74
2023/08/14 07:16:17;;;;;;;4.45;1.63;;;18.90;99.90;;;;;;5033080;28;20052;-77
2023/08/14 07:18:42;;;;;;;4.65;1.60;;;18.90;99.90;;;;;;5064891;28;20051;-76
2023/08/14 07:21:08;;;;;;;5.70;1.65;;;19.10;99.90;;;;;;5045979;28;20055;-77
2023/08/14 07:23:36;;;;;;;3.92;1.40;;;19.10;99.90;;;;;;5040165;28;20048;-75
2023/08/14 07:26:11;;;;;;;3.60;1.50;;;19.20;99.80;;;;;;5058465;28;20051;-74
2023/08/14 07:28:40;;;;;;;3.90;1.13;;;19.30;99.40;;;;;;5046885;28;20851;-74
2023/08/14 07:31:07;;;;;;;3.47;1.63;;;19.30;98.80;;;;;;5058682;28;20305;-74
2023/08/14 07:33:36;;;;;;;2.30;1.50;;;19.40;98.60;;;;;;5042081;28;20512;-73
2023/08/14 07:36:03;;;;;;;4.55;1.33;;;19.50;98.00;;;;;;5045277;28;20050;-77
2023/08/14 07:38:29;;;;;;;5.03;1.58;;;19.60;97.40;;;;;;5040420;28;20067;-76
2023/08/14 07:40:55;;;;;;;3.25;1.40;;;19.80;96.70;;;;;;5063370;28;20048;-76
2023/08/14 07:43:22;;;;;;;3.47;1.20;;;20.00;96.10;;;;;;5032755;28;20326;-77
2023/08/14 07:45:49;;;;;;;4.90;1.35;;;20.10;95.30;;;;;;5045028;28;20044;-77
2023/08/14 07:48:15;;;;;;;3.63;1.30;;;20.20;94.30;;;;;;5049820;28;20073;-76
2023/08/14 07:50:40;;;;;;;5.03;1.40;;;20.30;93.50;;;;;;5048245;28;20048;-78
2023/08/14 07:53:06;;;;;;;4.68;1.33;;;20.30;93.00;;;;;;5047753;28;20425;-77
2023/08/14 07:55:34;;;;;;;4.55;1.23;;;20.40;92.40;;;;;;5050904;28;20086;-76
2023/08/14 07:57:59;;;;;;;3.65;1.25;;;20.40;92.00;;;;;;5049391;28;20494;-76
2023/08/14 08:00:25;;;;;;;7.07;1.83;;;20.50;91.50;;;;;;5055817;28;20048;-77
2023/08/14 08:02:52;;;;;;;5.72;1.20;;;20.50;91.30;;;;;;5023239;28;20047;-77
2023/08/14 08:05:18;;;;;;;5.22;1.50;;;20.50;90.70;;;;;;5051743;28;20052;-79
2023/08/14 08:07:44;;;;;;;4.85;1.45;;;20.50;90.40;;;;;;5048093;28;20055;-78
2023/08/14 08:10:10;;;;;;;2.45;1.10;;;20.60;90.10;;;;;;5049229;28;20047;-77
2023/08/14 08:12:35;;;;;;;2.30;1.00;;;20.60;88.90;;;;;;5055493;28;20051;-78
2023/08/14 08:15:01;;;;;;;2.33;1.13;;;20.40;88.00;;;;;;5055417;28;20040;-75
2023/08/14 08:17:27;;;;;;;5.80;1.15;;;20.80;87.20;;;;;;5060502;28;20078;-76
2023/08/14 08:19:53;;;;;;;4.47;1.27;;;20.90;86.30;;;;;;5055059;28;20039;-75
2023/08/14 08:22:19;;;;;;;3.45;1.25;;;21.00;85.30;;;;;;5059826;28;20178;-77
2023/08/14 08:24:45;;;;;;;3.13;1.10;;;21.10;84.30;;;;;;5062569;28;20043;-77
2023/08/14 08:27:10;;;;;;;3.65;1.20;;;21.20;83.60;;;;;;5060857;28;20060;-79
2023/08/14 08:29:36;;;;;;;3.53;1.30;;;21.30;82.90;;;;;;5047119;28;20396;-77
2023/08/14 08:32:02;;;;;;;4.43;1.23;;;21.40;82.40;;;;;;5053779;28;20101;-77
2023/08/14 08:34:28;;;;;;;4.32;1.10;;;21.40;80.70;;;;;;5053385;28;20082;-77
2023/08/14 08:36:55;;;;;;;2.92;1.35;;;21.60;79.00;;;;;;5078177;28;20243;-76
2023/08/14 08:39:21;;;;;;;4.05;1.30;;;21.70;78.60;;;;;;5060678;28;20048;-75
2023/08/14 08:41:48;;;;;;;3.25;1.40;;;21.70;77.20;;;;;;5041195;28;20089;-79
2023/08/14 08:44:35;;;;;;;3.58;1.13;;;21.70;75.00;;;;;;5054795;28;20051;-76
2023/08/14 08:47:10;;;;;;;2.35;1.05;;;21.30;72.60;;;;;;5067253;28;20047;-74
2023/08/14 08:49:36;;;;;;;2.10;0.88;;;21.70;74.90;;;;;;5071697;28;20454;-78
2023/08/14 08:52:03;;;;;;;3.08;1.00;;;21.60;75.70;;;;;;5068878;28;20048;-77
2023/08/14 08:54:30;;;;;;;4.57;1.02;;;21.70;75.10;;;;;;5058562;28;20132;-76
2023/08/14 08:56:56;;;;;;;2.42;1.10;;;21.80;74.40;;;;;;5057568;28;20097;-76
2023/08/14 08:59:23;;;;;;;2.97;1.20;;;21.90;73.30;;;;;;5059401;28;20040;-76
2023/08/14 09:01:49;;;;;;;4.75;1.33;;;22.20;72.20;;;;;;5070806;28;20115;-76
2023/08/14 09:04:15;;;;;;;2.65;1.13;;;22.40;70.20;;;;;;5066592;28;20059;-76
2023/08/14 09:06:41;;;;;;;3.47;1.20;;;22.60;68.10;;;;;;5060378;28;20056;-76
2023/08/14 09:09:16;;;;;;;4.38;1.20;;;22.90;66.00;;;;;;5069047;28;20123;-77
2023/08/14 09:11:42;;;;;;;3.00;1.40;;;23.00;64.50;;;;;;5061526;28;20063;-75
2023/08/14 09:14:08;;;;;;;3.72;1.25;;;22.90;61.20;;;;;;5042814;28;20443;-76
2023/08/14 09:16:34;;;;;;;2.47;1.17;;;23.00;61.60;;;;;;5053051;28;20131;-80
2023/08/14 09:19:00;;;;;;;4.18;1.08;;;23.30;61.00;;;;;;5084961;28;20071;-78
2023/08/14 09:21:27;;;;;;;2.72;1.00;;;23.50;58.90;;;;;;5068207;28;20684;-78
2023/08/14 09:23:56;;;;;;;4.28;1.20;;;23.50;56.40;;;;;;5053062;28;20043;-79
2023/08/14 09:26:22;;;;;;;2.53;1.10;;;23.50;55.50;;;;;;5056274;28;20478;-78
2023/08/14 09:28:48;;;;;;;2.65;1.00;;;23.60;55.00;;;;;;5054732;28;20054;-77
2023/08/14 09:31:14;;;;;;;2.80;0.90;;;23.60;52.70;;;;;;5063387;28;20046;-77
2023/08/14 09:33:42;;;;;;;4.45;1.13;;;23.60;50.50;;;;;;5052395;28;20040;-76
2023/08/14 09:36:09;;;;;;;3.67;1.30;;;23.60;47.80;;;;;;5047208;28;20046;-77
2023/08/14 09:38:36;;;;;;;4.38;1.33;;;23.60;46.40;;;;;;5062230;28;20169;-77
2023/08/14 09:41:01;;;;;;;3.05;1.00;;;23.60;44.60;;;;;;5072226;28;20068;-77
2023/08/14 09:43:31;;;;;;;1.88;0.80;;;23.70;43.50;;;;;;5055923;28;20482;-76
2023/08/14 09:45:58;;;;;;;2.90;0.93;;;23.70;40.30;;;;;;5066850;28;20075;-79
2023/08/14 09:48:42;;;;;;;4.25;1.00;;;23.70;38.20;;;;;;5056983;28;20078;-80
2023/08/14 09:51:16;;;;;;;2.50;1.13;;;23.60;33.60;;;;;;5064930;28;20144;-78
2023/08/14 09:53:54;;;;;;;2.88;1.33;;;23.90;37.20;;;;;;5061083;28;20055;-78
2023/08/14 09:56:20;;;;;;;4.38;1.50;;;24.30;34.70;;;;;;5068088;28;20474;-77
2023/08/14 09:58:47;;;;;;;4.18;1.17;;;24.60;27.70;;;;;;5045007;28;20109;-79
2023/08/14 10:01:18;;;;;;;3.80;1.10;;;25.00;21.20;;;;;;5042363;28;20166;-78
2023/08/14 10:03:47;;;;;;;3.60;1.00;;;25.20;8.90;;;;;;5053998;28;20055;-77
2023/08/14 10:06:13;;;;;;;1.83;1.00;;;25.30;1.30;;;;;;5054107;28;20051;-77
2023/08/14 10:08:42;;;;;;;2.97;1.10;;;25.40;1.00;;;;;;5039063;28;20067;-75
2023/08/14 10:11:11;;;;;;;3.65;1.00;;;25.60;1.00;;;;;;5057479;28;20144;-79
2023/08/14 10:13:43;;;;;;;3.40;1.17;;;25.70;1.00;;;;;;5026807;28;20055;-78
2023/08/14 10:16:14;;;;;;;3.33;1.00;;;25.70;1.00;;;;;;5042661;28;20112;-79
2023/08/14 10:18:44;;;;;;;5.38;1.17;;;25.80;1.00;;;;;;5056924;28;20490;-77
2023/08/14 10:21:14;;;;;;;3.53;1.15;;;25.90;1.00;;;;;;5050046;28;20146;-77
2023/08/14 10:23:41;;;;;;;4.20;1.17;;;26.30;1.00;;;;;;5046997;28;22191;-79
2023/08/14 10:26:09;;;;;;;4.35;1.42;;;26.20;1.00;;;;;;5074588;28;20267;-79
2023/08/14 10:28:36;;;;;;;5.80;1.50;;;26.30;1.00;;;;;;5055325;28;20089;-80
2023/08/14 10:31:03;;;;;;;2.63;1.35;;;26.50;1.00;;;;;;5033284;28;20051;-79
2023/08/14 10:33:30;;;;;;;2.95;1.30;;;26.70;1.00;;;;;;5048632;28;20110;-78
2023/08/14 10:35:58;;;;;;;5.43;1.35;;;27.10;1.00;;;;;;5065953;28;20051;-78
2023/08/14 10:38:46;;;;;;;4.00;1.40;;;27.40;1.00;;;;;;5061892;28;20538;-78
2023/08/14 10:41:14;;;;;;;4.82;1.20;;;27.70;1.00;;;;;;5051200;28;21015;-81
2023/08/14 10:43:40;;;;;;;2.45;1.23;;;27.90;1.00;;;;;;5067747;28;20410;-79
2023/08/14 10:46:10;;;;;;;2.22;1.02;;;28.10;1.00;;;;;;5073044;28;20047;-81
2023/08/14 10:48:37;;;;;;;4.00;1.30;;;28.30;1.00;;;;;;5055714;28;20047;-79
2023/08/14 10:51:05;;;;;;;5.05;1.10;;;28.50;1.00;;;;;;5057993;28;20342;-79
2023/08/14 10:53:31;;;;;;;3.83;1.13;;;28.70;99.90;;;;;;5068520;28;20074;-80
2023/08/14 10:55:58;;;;;;;2.38;1.00;;;29.00;99.90;;;;;;5036422;28;20619;-78
2023/08/14 10:58:36;;;;;;;2.92;1.10;;;29.20;99.90;;;;;;5065943;28;20755;-78
2023/08/14 11:01:08;;;;;;;3.03;1.20;;;29.20;34.60;;;;;;5055254;28;20040;-79
2023/08/14 11:03:54;;;;;;;4.32;1.35;;;29.20;1.00;;;;;;5065522;28;20048;-79
2023/08/14 11:06:23;;;;;;;;;;;29.40;8.30;;;;;;5063429;28;20043;-80
2023/08/14 11:08:55;;;;;;;3.92;1.30;;;29.50;91.80;;;;;;5069425;28;19963;-78
2023/08/14 11:11:21;;;;;;;4.22;1.20;;;29.50;1.00;;;;;;5066181;28;20152;-80
2023/08/14 11:13:47;;;;;;;3.47;1.15;;;29.50;99.90;;;;;;5052226;28;20043;-81
2023/08/14 11:16:13;;;;;;;2.60;1.20;;;29.50;99.90;;;;;;5053280;28;20083;-77
2023/08/14 11:18:40;;;;;;;3.53;1.13;;;29.50;99.90;;;;;;5067051;28;20046;-78
2023/08/14 11:21:06;;;;;;;4.28;1.65;;;29.40;42.00;;;;;;5067787;28;20055;-81
2023/08/14 11:23:33;;;;;;;2.85;1.40;;;29.30;99.90;;;;;;5063608;28;20086;-78
2023/08/14 11:25:59;;;;;;;3.70;1.23;;;29.20;1.00;;;;;;5064213;28;20047;-78
2023/08/14 11:28:24;;;;;;;3.90;1.13;;;29.10;99.90;;;;;;5050443;28;20032;-79
2023/08/14 11:30:50;;;;;;;2.38;1.13;;;29.20;99.90;;;;;;5059616;28;20137;-79
2023/08/14 11:33:22;;;;;;;3.10;1.25;;;29.30;5.80;;;;;;5052062;28;20052;-78
2023/08/14 11:35:47;;;;;;;3.30;1.20;;;29.30;16.90;;;;;;5056190;28;20059;-77
2023/08/14 11:38:13;;;;;;;2.90;1.40;;;29.40;99.90;;;;;;5064360;28;20403;-78
2023/08/14 11:40:42;;;;;;;3.40;1.40;;;29.60;1.00;;;;;;5060419;28;20136;-78
2023/08/14 11:43:09;;;;;;;3.53;1.20;;;29.80;1.00;;;;;;5062795;28;20109;-79
2023/08/14 11:45:37;;;;;;;3.63;1.15;;;29.90;1.00;;;;;;5058254;28;20056;-81
2023/08/14 11:48:03;;;;;;;3.97;1.20;;;30.10;1.00;;;;;;5058712;28;20044;-77
2023/08/14 11:50:30;;;;;;;3.50;1.20;;;30.00;1.00;;;;;;5072627;28;20067;-79
2023/08/14 11:52:56;;;;;;;3.47;0.95;;;30.20;99.90;;;;;;5071476;28;20081;-77
2023/08/14 11:55:22;;;;;;;2.75;1.20;;;30.20;22.40;;;;;;5067553;28;20052;-77
2023/08/14 11:57:48;;;;;;;3.33;1.02;;;30.20;99.90;;;;;;5050343;28;20463;-77
2023/08/14 12:00:15;;;;;;;3.40;1.52;;;30.30;99.90;;;;;;5059675;28;20048;-79
2023/08/14 12:02:41;;;;;;;5.55;1.10;;;30.20;99.90;;;;;;5072923;28;20507;-76
2023/08/14 12:05:08;;;;;;;3.08;1.20;;;30.20;1.00;;;;;;5070092;28;20047;-76
2023/08/14 12:07:34;;;;;;;4.30;1.20;;;30.10;1.00;;;;;;5078583;28;20040;-77
2023/08/14 12:10:05;;;;;;;3.30;0.90;;;30.20;99.90;;;;;;5091342;28;20048;-78
2023/08/14 12:12:31;;;;;;;3.95;1.15;;;30.30;1.00;;;;;;5053601;28;20063;-78
2023/08/14 12:14:56;;;;;;;3.47;1.33;;;30.50;1.00;;;;;;5074639;28;20040;-80
2023/08/14 12:17:22;;;;;;;3.47;1.00;;;30.20;99.90;;;;;;5075260;28;20045;-79
2023/08/14 12:19:52;;;;;;;3.22;1.15;;;30.40;99.90;;;;;;5074269;28;20654;-79
2023/08/14 12:22:22;;;;;;;2.63;0.90;;;30.50;99.90;;;;;;5076770;28;20078;-76
2023/08/14 12:24:49;;;;;;;4.80;1.30;;;30.40;99.90;;;;;;5060132;28;20051;-78
2023/08/14 12:27:18;;;;;;;3.28;1.10;;;30.30;9.30;;;;;;5060948;28;20162;-80
2023/08/14 12:29:44;;;;;;;6.53;1.35;;;30.30;93.90;;;;;;5072444;28;20767;-76
2023/08/14 12:32:10;;;;;;;3.53;1.10;;;30.30;1.00;;;;;;5056254;28;20044;-80
2023/08/14 12:34:36;;;;;;;4.43;1.67;;;30.30;99.90;;;;;;5074818;28;20036;-80
2023/08/14 12:37:04;;;;;;;3.78;1.30;;;30.50;91.10;;;;;;5059554;28;20435;-77
2023/08/14 12:39:30;;;;;;;4.18;1.58;;;30.70;51.70;;;;;;5091671;28;20063;-78
2023/08/14 12:41:57;;;;;;;3.53;1.33;;;30.90;1.00;;;;;;5069082;28;20187;-79
2023/08/14 12:44:23;;;;;;;6.53;1.80;;;31.00;1.00;;;;;;5032926;28;20203;-79
2023/08/14 12:46:49;;;;;;;5.20;1.92;;;30.70;1.00;;;;;;5032724;28;20383;-78
2023/08/14 12:49:14;;;;;;;5.90;1.58;;;30.60;1.00;;;;;;5070668;28;20391;-78